createdAt,value
2023-04-08T00:02:26.592Z,99381.75
2023-04-08T00:04:59.599Z,99381.53
2023-04-08T00:07:32.424Z,99369.53
2023-04-08T00:10:06.995Z,99381.44
2023-04-08T00:12:39.813Z,99372.03
2023-04-08T00:15:14.187Z,99371.53
2023-04-08T00:17:47.201Z,99373.09
2023-04-08T00:20:20.016Z,99369.31
2023-04-08T00:22:52.823Z,99379.03
2023-04-08T00:25:25.968Z,99380.63
2023-04-08T00:27:58.976Z,99384.13
2023-04-08T00:30:34.059Z,99388.16
2023-04-08T00:33:09.078Z,99395.19
2023-04-08T00:35:42.054Z,99395.06
2023-04-08T00:38:14.887Z,99399.75
2023-04-08T00:40:47.913Z,99392.84
2023-04-08T00:43:21.984Z,99400.16
2023-04-08T00:45:56.576Z,99402.50
2023-04-08T00:48:31.373Z,99387.16
2023-04-08T00:51:04.873Z,99402.75
2023-04-08T00:53:37.807Z,99407.47
2023-04-08T00:56:10.719Z,99402.34
2023-04-08T00:58:43.879Z,99412.56
2023-04-08T01:01:27.494Z,99412.44
2023-04-08T01:04:07.604Z,99410.03
2023-04-08T01:06:47.060Z,99409.41
2023-04-08T01:09:24.664Z,99412.31
2023-04-08T01:11:59.625Z,99403.94
2023-04-08T01:14:36.438Z,99408.38
2023-04-08T01:17:11.790Z,99404.94
2023-04-08T01:19:47.838Z,99413.69
2023-04-08T01:22:29.213Z,99415.31
2023-04-08T01:25:08.143Z,99407.41
2023-04-08T01:27:44.028Z,99405.59
2023-04-08T01:30:19.916Z,99409.75
2023-04-08T01:32:55.701Z,99409.53
2023-04-08T01:35:29.577Z,99412.91
2023-04-08T01:38:04.792Z,99395.44
2023-04-08T01:40:40.741Z,99401.53
2023-04-08T01:43:17.523Z,99405.34
2023-04-08T01:45:54.481Z,99409.28
2023-04-08T01:48:29.345Z,99399.34
2023-04-08T01:51:05.368Z,99405.59
2023-04-08T01:53:38.728Z,99396.59
2023-04-08T01:56:14.399Z,99400.03
2023-04-08T01:58:53.198Z,99392.63
2023-04-08T02:01:28.381Z,99403.16
2023-04-08T02:04:03.129Z,99400.41
2023-04-08T02:06:36.640Z,99398.66
2023-04-08T02:09:09.692Z,99398.25
2023-04-08T02:11:43.500Z,99401.88
2023-04-08T02:14:17.842Z,99405.94
2023-04-08T02:16:54.941Z,99401.69
2023-04-08T02:19:31.225Z,99400.09
2023-04-08T02:22:10.385Z,99407.78
2023-04-08T02:24:45.342Z,99408.19
2023-04-08T02:27:19.984Z,99412.25
2023-04-08T02:29:58.859Z,99408.91
2023-04-08T02:32:33.785Z,99412.09
2023-04-08T02:35:08.550Z,99410.56
2023-04-08T02:37:41.746Z,99416.66
2023-04-08T02:40:37.048Z,99420.69
2023-04-08T02:43:10.125Z,99415.00
2023-04-08T02:45:45.437Z,99414.44
2023-04-08T02:48:18.302Z,99417.06
2023-04-08T02:50:51.120Z,99424.22
2023-04-08T02:53:24.639Z,99432.06
2023-04-08T02:55:57.492Z,99426.44
2023-04-08T02:58:30.609Z,99436.00
2023-04-08T03:01:04.848Z,99425.53
2023-04-08T03:03:37.889Z,99426.63
2023-04-08T03:06:10.715Z,99425.72
2023-04-08T03:08:43.792Z,99437.28
2023-04-08T03:11:16.665Z,99430.22
2023-04-08T03:13:50.099Z,99441.22
2023-04-08T03:16:24.704Z,99436.13
2023-04-08T03:18:58.629Z,99435.84
2023-04-08T03:21:32.392Z,99437.19
2023-04-08T03:24:05.710Z,99436.03
2023-04-08T03:26:38.465Z,99425.56
2023-04-08T03:29:11.249Z,99426.91
2023-04-08T03:31:45.890Z,99434.84
2023-04-08T03:34:19.045Z,99433.06
2023-04-08T03:36:51.948Z,99440.63
2023-04-08T03:39:24.799Z,99443.91
2023-04-08T03:41:59.848Z,99440.47
2023-04-08T03:44:32.620Z,99439.94
2023-04-08T03:47:07.320Z,99439.94
2023-04-08T03:49:40.574Z,99441.69
2023-04-08T03:52:13.452Z,99442.47
2023-04-08T03:54:46.229Z,99437.91
2023-04-08T03:57:19.162Z,99437.94
2023-04-08T03:59:51.996Z,99447.22
2023-04-08T04:02:26.638Z,99448.31
2023-04-08T04:04:59.737Z,99453.84
2023-04-08T04:07:32.684Z,99443.69
2023-04-08T04:10:06.558Z,99452.19
2023-04-08T04:12:39.546Z,99455.94
2023-04-08T04:15:13.333Z,99449.22
2023-04-08T04:17:49.158Z,99457.72
2023-04-08T04:20:22.527Z,99454.56
2023-04-08T04:22:55.339Z,99456.94
2023-04-08T04:25:28.696Z,99460.94
2023-04-08T04:28:01.993Z,99466.81
2023-04-08T04:30:34.887Z,99471.84
2023-04-08T04:33:09.272Z,99473.31
2023-04-08T04:35:42.073Z,99472.19
2023-04-08T04:38:15.157Z,99470.22
2023-04-08T04:40:48.085Z,99471.78
2023-04-08T04:43:20.995Z,99472.69
2023-04-08T04:45:53.776Z,99467.78
2023-04-08T04:48:28.054Z,99465.78
2023-04-08T04:51:03.193Z,99462.13
2023-04-08T04:53:36.122Z,99468.22
2023-04-08T04:56:09.100Z,99468.09
2023-04-08T04:58:42.332Z,99467.63
2023-04-08T05:01:15.830Z,99476.09
2023-04-08T05:03:50.313Z,99471.91
2023-04-08T05:06:24.858Z,99473.50
2023-04-08T05:08:57.840Z,99479.47
2023-04-08T05:11:30.961Z,99479.88
2023-04-08T05:14:03.820Z,99487.69
2023-04-08T05:16:36.912Z,99490.69
2023-04-08T05:19:13.616Z,99487.97
2023-04-08T05:21:46.389Z,99492.88
2023-04-08T05:24:19.266Z,99495.56
2023-04-08T05:26:53.377Z,99496.69
2023-04-08T05:29:26.665Z,99503.09
2023-04-08T05:32:00.577Z,99493.09
2023-04-08T05:34:34.897Z,99504.81
2023-04-08T05:37:08.054Z,99499.81
2023-04-08T05:39:40.888Z,99505.88
2023-04-08T05:42:14.282Z,99505.34
2023-04-08T05:44:47.094Z,99506.66
2023-04-08T05:47:19.913Z,99505.97
2023-04-08T05:49:54.405Z,99507.50
2023-04-08T05:52:27.240Z,99507.94
2023-04-08T05:55:00.540Z,99509.66
2023-04-08T05:57:33.837Z,99509.22
2023-04-08T06:00:09.478Z,99510.69
2023-04-08T06:02:43.360Z,99511.88
2023-04-08T06:05:19.316Z,99512.31
2023-04-08T06:07:52.273Z,99512.94
2023-04-08T06:10:25.177Z,99516.41
2023-04-08T06:12:57.956Z,99522.97
2023-04-08T06:15:31.160Z,99527.00
2023-04-08T06:18:04.513Z,99533.19
2023-04-08T06:20:38.887Z,99534.13
2023-04-08T06:23:11.804Z,99532.47
2023-04-08T06:25:44.577Z,99533.28
2023-04-08T06:28:17.598Z,99539.50
2023-04-08T06:30:50.352Z,99538.31
2023-04-08T06:33:23.349Z,99536.69
2023-04-08T06:36:04.757Z,99545.56
2023-04-08T06:38:37.544Z,99543.69
2023-04-08T06:41:10.354Z,99552.00
2023-04-08T06:43:43.172Z,99548.09
2023-04-08T06:46:16.176Z,99555.31
2023-04-08T06:48:49.359Z,99556.09
2023-04-08T06:51:24.394Z,99553.72
2023-04-08T06:53:57.510Z,99562.47
2023-04-08T06:56:30.441Z,99562.53
2023-04-08T06:59:03.231Z,99571.19
2023-04-08T07:01:36.076Z,99562.50
2023-04-08T07:04:09.041Z,99566.47
2023-04-08T07:06:43.312Z,99570.47
2023-04-08T07:09:16.203Z,99566.13
2023-04-08T07:11:49.478Z,99574.84
2023-04-08T07:14:22.360Z,99562.53
2023-04-08T07:16:55.420Z,99572.03
2023-04-08T07:19:28.420Z,99570.06
2023-04-08T07:22:02.975Z,99571.66
2023-04-08T07:24:36.333Z,99578.00
2023-04-08T07:27:09.766Z,99581.22
2023-04-08T07:29:42.610Z,99572.06
2023-04-08T07:32:16.169Z,99584.78
2023-04-08T07:34:49.216Z,99589.16
2023-04-08T07:37:23.599Z,99603.44
2023-04-08T07:39:56.783Z,99605.00
2023-04-08T07:42:29.640Z,99611.75
2023-04-08T07:45:02.544Z,99614.13
2023-04-08T07:47:35.682Z,99606.19
2023-04-08T07:50:09.296Z,99618.47
2023-04-08T07:52:43.702Z,99616.94
2023-04-08T07:55:16.649Z,99616.13
2023-04-08T07:57:49.820Z,99612.94
2023-04-08T08:00:23.308Z,99608.97
2023-04-08T08:02:56.374Z,99609.38
2023-04-08T08:05:29.656Z,99618.50
2023-04-08T08:08:04.019Z,99614.50
2023-04-08T08:10:37.052Z,99623.28
2023-04-08T08:13:10.081Z,99628.44
2023-04-08T08:15:43.715Z,99627.25
2023-04-08T08:18:16.767Z,99631.22
2023-04-08T08:20:49.756Z,99634.38
2023-04-08T08:23:24.593Z,99636.38
2023-04-08T08:26:01.083Z,99643.13
2023-04-08T08:28:34.367Z,99647.88
2023-04-08T08:31:07.495Z,99649.88
2023-04-08T08:33:40.663Z,99648.69
2023-04-08T08:36:13.660Z,99658.59
2023-04-08T08:38:47.843Z,99657.44
2023-04-08T08:41:20.686Z,99654.66
2023-04-08T08:43:55.036Z,99654.63
2023-04-08T08:46:27.971Z,99658.22
2023-04-08T08:49:01.190Z,99658.19
2023-04-08T08:51:35.014Z,99661.81
2023-04-08T08:54:09.674Z,99669.28
2023-04-08T08:56:43.454Z,99666.94
2023-04-08T08:59:16.355Z,99669.72
2023-04-08T09:01:49.272Z,99672.09
2023-04-08T09:04:23.078Z,99672.13
2023-04-08T09:07:10.483Z,99676.06
2023-04-08T09:09:52.560Z,99676.88
2023-04-08T09:12:27.331Z,99674.13
2023-04-08T09:15:07.233Z,99668.06
2023-04-08T09:17:41.914Z,99664.00
2023-04-08T09:20:15.636Z,99669.22
2023-04-08T09:22:59.225Z,99666.81
2023-04-08T09:25:34.664Z,99667.69
2023-04-08T09:28:20.339Z,99681.44
2023-04-08T09:30:53.140Z,99671.03
2023-04-08T09:33:31.805Z,99677.94
2023-04-08T09:36:05.264Z,99674.56
2023-04-08T09:38:38.138Z,99676.44
2023-04-08T09:41:15.621Z,99681.63
2023-04-08T09:43:50.543Z,99677.66
2023-04-08T09:46:28.749Z,99684.56
2023-04-08T09:49:07.445Z,99688.22
2023-04-08T09:51:46.497Z,99686.97
2023-04-08T09:54:23.982Z,99684.03
2023-04-08T09:57:05.611Z,99690.19
2023-04-08T09:59:42.984Z,99691.66
2023-04-08T10:02:21.072Z,99685.06
2023-04-08T10:04:58.768Z,99684.91
2023-04-08T10:07:31.686Z,99688.25
2023-04-08T10:10:05.831Z,99686.84
2023-04-08T10:12:40.704Z,99690.88
2023-04-08T10:15:27.605Z,99691.28
2023-04-08T10:18:34.394Z,99691.50
2023-04-08T10:21:33.791Z,99692.75
2023-04-08T10:24:11.795Z,99683.28
2023-04-08T10:26:46.557Z,99666.59
2023-04-08T10:29:44.222Z,99671.03
2023-04-08T10:32:30.314Z,99674.59
2023-04-08T10:35:04.341Z,99678.47
2023-04-08T10:37:37.122Z,99684.22
2023-04-08T10:40:20.603Z,99669.91
2023-04-08T10:42:55.934Z,99669.81
2023-04-08T10:45:30.702Z,99677.28
2023-04-08T10:48:18.451Z,99676.69
2023-04-08T10:50:55.907Z,99671.06
2023-04-08T10:53:30.188Z,99669.72
2023-04-08T10:56:07.404Z,99675.16
2023-04-08T10:58:49.537Z,99670.16
2023-04-08T11:01:24.461Z,99665.00
2023-04-08T11:03:57.863Z,99667.19
2023-04-08T11:06:30.851Z,99675.91
2023-04-08T11:09:05.698Z,99678.03
2023-04-08T11:11:39.194Z,99670.94
2023-04-08T11:14:12.385Z,99672.22
2023-04-08T11:16:47.692Z,99669.44
2023-04-08T11:19:21.517Z,99675.63
2023-04-08T11:21:54.631Z,99673.91
2023-04-08T11:24:28.451Z,99674.19
2023-04-08T11:27:02.965Z,99671.16
2023-04-08T11:29:36.431Z,99669.97
2023-04-08T11:32:10.952Z,99670.94
2023-04-08T11:34:44.652Z,99666.88
2023-04-08T11:37:17.519Z,99666.19
2023-04-08T11:39:50.401Z,99667.25
2023-04-08T11:42:33.912Z,99673.94
2023-04-08T11:45:13.077Z,99668.22
2023-04-08T11:47:48.293Z,99668.53
2023-04-08T11:50:25.861Z,99667.94
2023-04-08T11:53:00.063Z,99668.88
2023-04-08T11:55:34.298Z,99661.75
2023-04-08T11:58:07.905Z,99671.59
2023-04-08T12:00:40.975Z,99666.72
2023-04-08T12:03:15.908Z,99670.63
2023-04-08T12:05:49.230Z,99673.97
2023-04-08T12:08:22.817Z,99670.81
2023-04-08T12:10:55.882Z,99679.31
2023-04-08T12:13:29.034Z,99662.78
2023-04-08T12:16:01.895Z,99685.25
2023-04-08T12:18:36.819Z,99671.28
2023-04-08T12:21:09.579Z,99671.16
2023-04-08T12:23:42.897Z,99673.81
2023-04-08T12:26:15.767Z,99677.72
2023-04-08T12:28:48.662Z,99673.06
2023-04-08T12:31:22.768Z,99679.78
2023-04-08T12:33:57.475Z,99681.81
2023-04-08T12:36:31.932Z,99683.38
2023-04-08T12:39:06.134Z,99681.50
2023-04-08T12:41:39.383Z,99683.78
2023-04-08T12:44:12.167Z,99683.28
2023-04-08T12:46:45.069Z,99688.44
2023-04-08T12:49:19.403Z,99676.16
2023-04-08T12:51:52.850Z,99685.25
2023-04-08T12:54:25.908Z,99675.97
2023-04-08T12:56:58.605Z,99684.00
2023-04-08T12:59:32.222Z,99676.88
2023-04-08T13:02:05.174Z,99678.47
2023-04-08T13:04:39.963Z,99677.31
2023-04-08T13:07:12.744Z,99675.97
2023-04-08T13:09:45.906Z,99679.00
2023-04-08T13:12:18.707Z,99673.94
2023-04-08T13:14:51.693Z,99676.63
2023-04-08T13:17:24.698Z,99670.53
2023-04-08T13:19:59.033Z,99670.38
2023-04-08T13:22:33.638Z,99677.25
2023-04-08T13:25:07.423Z,99674.75
2023-04-08T13:27:40.760Z,99673.50
2023-04-08T13:30:14.257Z,99666.88
2023-04-08T13:32:47.332Z,99666.41
2023-04-08T13:35:21.824Z,99666.81
2023-04-08T13:37:55.363Z,99674.38
2023-04-08T13:40:28.324Z,99688.16
2023-04-08T13:43:01.747Z,99667.00
2023-04-08T13:45:34.535Z,99673.34
2023-04-08T13:48:10.934Z,99677.63
2023-04-08T13:50:45.161Z,99668.69
2023-04-08T13:53:18.089Z,99667.22
2023-04-08T13:55:55.072Z,99666.59
2023-04-08T13:58:28.017Z,99669.59
2023-04-08T14:01:01.039Z,99666.38
2023-04-08T14:03:34.014Z,99666.88
2023-04-08T14:06:08.628Z,99666.97
2023-04-08T14:08:41.542Z,99673.88
2023-04-08T14:11:14.338Z,99657.75
2023-04-08T14:13:47.418Z,99659.34
2023-04-08T14:16:20.429Z,99673.47
2023-04-08T14:18:53.662Z,99665.50
2023-04-08T14:21:28.189Z,99665.06
2023-04-08T14:24:02.634Z,99661.81
2023-04-08T14:26:36.019Z,99666.72
2023-04-08T14:29:09.037Z,99663.78
2023-04-08T14:31:42.142Z,99661.06
2023-04-08T14:34:16.062Z,99662.59
2023-04-08T14:36:50.252Z,99663.56
2023-04-08T14:39:23.564Z,99667.97
2023-04-08T14:41:57.376Z,99665.34
2023-04-08T14:44:30.190Z,99660.59
2023-04-08T14:47:03.886Z,99661.25
2023-04-08T14:49:36.720Z,99662.88
2023-04-08T14:52:11.112Z,99669.00
2023-04-08T14:54:45.432Z,99669.78
2023-04-08T14:57:18.425Z,99671.84
2023-04-08T14:59:51.390Z,99679.38
2023-04-08T15:02:24.539Z,99676.94
2023-04-08T15:04:58.230Z,99669.47
2023-04-08T15:07:32.698Z,99669.22
2023-04-08T15:10:05.977Z,99673.06
2023-04-08T15:12:38.965Z,99679.75
2023-04-08T15:15:12.517Z,99680.72
2023-04-08T15:17:45.428Z,99674.81
2023-04-08T15:20:19.032Z,99675.75
2023-04-08T15:22:53.751Z,99664.28
2023-04-08T15:25:26.630Z,99677.72
2023-04-08T15:27:59.656Z,99683.78
2023-04-08T15:30:35.385Z,99687.47
2023-04-08T15:33:08.457Z,99680.00
2023-04-08T15:35:41.691Z,99685.03
2023-04-08T15:38:16.214Z,99685.88
2023-04-08T15:40:49.014Z,99690.59
2023-04-08T15:43:22.476Z,99689.09
2023-04-08T15:45:55.583Z,99691.63
2023-04-08T15:48:28.345Z,99693.44
2023-04-08T15:51:08.228Z,99695.97
2023-04-08T15:53:42.723Z,99701.69
2023-04-08T15:56:18.073Z,99702.75
2023-04-08T15:58:51.391Z,99703.34
2023-04-08T16:01:24.367Z,99705.41
2023-04-08T16:03:57.298Z,99705.50
2023-04-08T16:06:30.318Z,99711.63
2023-04-08T16:09:04.647Z,99716.78
2023-04-08T16:11:37.779Z,99721.69
2023-04-08T16:14:11.215Z,99722.13
2023-04-08T16:16:44.298Z,99718.22
2023-04-08T16:19:17.572Z,99722.66
2023-04-08T16:21:50.989Z,99722.84
2023-04-08T16:24:25.090Z,99734.28
2023-04-08T16:26:58.765Z,99741.28
2023-04-08T16:29:32.581Z,99735.31
2023-04-08T16:32:05.548Z,99739.78
2023-04-08T16:34:38.423Z,99750.03
2023-04-08T16:37:12.257Z,99741.50
2023-04-08T16:39:47.559Z,99746.03
2023-04-08T16:42:20.649Z,99736.88
2023-04-08T16:44:56.975Z,99747.69
2023-04-08T16:47:29.937Z,99745.50
2023-04-08T16:50:03.324Z,99754.06
2023-04-08T16:52:39.926Z,99756.72
2023-04-08T16:55:14.644Z,99753.41
2023-04-08T16:57:47.604Z,99754.97
2023-04-08T17:00:21.216Z,99756.28
2023-04-08T17:02:56.876Z,99755.44
2023-04-08T17:05:29.993Z,99761.00
2023-04-08T17:08:02.843Z,99770.28
2023-04-08T17:10:37.140Z,99759.81
2023-04-08T17:13:10.837Z,99762.56
2023-04-08T17:15:44.682Z,99764.25
2023-04-08T17:18:17.602Z,99759.84
2023-04-08T17:20:50.430Z,99774.25
2023-04-08T17:23:23.955Z,99771.19
2023-04-08T17:25:59.804Z,99780.31
2023-04-08T17:28:32.966Z,99771.56
2023-04-08T17:31:05.951Z,99771.75
2023-04-08T17:33:38.893Z,99778.28
2023-04-08T17:36:12.066Z,99786.13
2023-04-08T17:38:47.145Z,99788.41
2023-04-08T17:41:38.462Z,99795.78
2023-04-08T17:44:12.190Z,99786.78
2023-04-08T17:46:45.173Z,99799.31
2023-04-08T17:49:18.553Z,99793.41
2023-04-08T17:51:52.131Z,99799.41
2023-04-08T17:54:25.715Z,99793.72
2023-04-08T17:56:59.826Z,99808.19
2023-04-08T17:59:32.621Z,99805.72
2023-04-08T18:02:06.181Z,99805.78
2023-04-08T18:04:39.180Z,99810.19
2023-04-08T18:07:12.160Z,99817.47
2023-04-08T18:09:46.401Z,99811.03
2023-04-08T18:12:21.495Z,99811.09
2023-04-08T18:14:54.432Z,99815.81
2023-04-08T18:17:27.683Z,99818.63
2023-04-08T18:20:00.628Z,99831.75
2023-04-08T18:22:36.639Z,99829.38
2023-04-08T18:25:10.435Z,99836.56
2023-04-08T18:27:44.692Z,99841.81
2023-04-08T18:30:17.489Z,99837.38
2023-04-08T18:32:50.253Z,99846.19
2023-04-08T18:35:23.616Z,99853.72
2023-04-08T18:37:57.312Z,99853.75
2023-04-08T18:40:31.542Z,99855.75
2023-04-08T18:43:06.056Z,99853.75
2023-04-08T18:45:38.997Z,99858.53
2023-04-08T18:48:12.555Z,99858.91
2023-04-08T18:50:45.894Z,99867.25
2023-04-08T18:53:18.837Z,99862.03
2023-04-08T18:55:52.473Z,99870.00
2023-04-08T18:58:27.205Z,99867.22
2023-04-08T19:01:00.264Z,99871.56
2023-04-08T19:03:33.614Z,99871.16
2023-04-08T19:06:07.514Z,99863.59
2023-04-08T19:08:41.467Z,99869.59
2023-04-08T19:11:14.660Z,99870.88
2023-04-08T19:13:48.825Z,99867.28
2023-04-08T19:16:21.749Z,99880.72
2023-04-08T19:18:54.914Z,99874.81
2023-04-08T19:21:30.856Z,99873.56
2023-04-08T19:24:05.437Z,99872.78
2023-04-08T19:26:38.353Z,99876.38
2023-04-08T19:29:13.372Z,99881.59
2023-04-08T19:31:46.878Z,99883.91
2023-04-08T19:34:19.680Z,99881.97
2023-04-08T19:36:52.832Z,99887.94
2023-04-08T19:39:27.140Z,99878.00
2023-04-08T19:42:02.401Z,99874.81
2023-04-08T19:44:36.592Z,99883.56
2023-04-08T19:47:09.724Z,99874.44
2023-04-08T19:49:42.772Z,99889.53
2023-04-08T19:52:16.826Z,99887.16
2023-04-08T19:54:51.249Z,99883.59
2023-04-08T19:57:24.974Z,99889.13
2023-04-08T19:59:59.103Z,99887.94
2023-04-08T20:02:32.185Z,99891.13
2023-04-08T20:05:14.553Z,99893.09
2023-04-08T20:07:47.360Z,99894.31
2023-04-08T20:10:20.597Z,99890.72
2023-04-08T20:12:53.870Z,99895.13
2023-04-08T20:15:28.182Z,99891.13
2023-04-08T20:18:00.988Z,99887.97
2023-04-08T20:20:34.793Z,99893.94
2023-04-08T20:23:07.622Z,99894.72
2023-04-08T20:25:41.194Z,99890.75
2023-04-08T20:28:14.300Z,99893.13
2023-04-08T20:30:48.683Z,99890.72
2023-04-08T20:33:21.519Z,99896.31
2023-04-08T20:35:54.737Z,99898.69
2023-04-08T20:38:28.297Z,99901.47
2023-04-08T20:41:01.284Z,99905.84
2023-04-08T20:43:34.048Z,99901.06
2023-04-08T20:46:08.237Z,99908.22
2023-04-08T20:48:44.412Z,99914.16
2023-04-08T20:51:18.522Z,99906.59
2023-04-08T20:53:51.323Z,99905.44
2023-04-08T20:56:24.085Z,99907.41
2023-04-08T20:58:59.700Z,99909.00
2023-04-08T21:01:34.807Z,99910.13
2023-04-08T21:04:07.594Z,99912.91
2023-04-08T21:06:40.643Z,99906.97
2023-04-08T21:09:14.920Z,99912.19
2023-04-08T21:11:47.651Z,99920.06
2023-04-08T21:14:20.900Z,99907.00
2023-04-08T21:16:55.048Z,99910.59
2023-04-08T21:19:27.883Z,99907.75
2023-04-08T21:22:00.706Z,99903.81
2023-04-08T21:24:34.121Z,99906.56
2023-04-08T21:27:07.102Z,99911.28
2023-04-08T21:29:42.074Z,99907.75
2023-04-08T21:32:17.127Z,99914.00
2023-04-08T21:34:53.168Z,99906.91
2023-04-08T21:37:26.522Z,99909.34
2023-04-08T21:39:59.723Z,99906.56
2023-04-08T21:42:33.093Z,99912.13
2023-04-08T21:45:07.519Z,99907.75
2023-04-08T21:47:42.022Z,99910.41
2023-04-08T21:50:15.364Z,99908.50
2023-04-08T21:52:48.942Z,99905.34
2023-04-08T21:55:22.159Z,99909.72
2023-04-08T21:57:55.695Z,99912.91
2023-04-08T22:00:28.827Z,99909.69
2023-04-08T22:03:03.247Z,99913.28
2023-04-08T22:05:37.212Z,99912.03
2023-04-08T22:08:10.535Z,99904.84
2023-04-08T22:10:44.139Z,99905.94
2023-04-08T22:13:18.905Z,99908.47
2023-04-08T22:15:52.109Z,99906.13
2023-04-08T22:18:27.269Z,99904.97
2023-04-08T22:21:00.644Z,99906.41
2023-04-08T22:23:34.361Z,99904.13
2023-04-08T22:26:07.478Z,99903.72
2023-04-08T22:28:40.559Z,99900.16
2023-04-08T22:31:14.106Z,99908.44
2023-04-08T22:33:48.721Z,99900.47
2023-04-08T22:36:22.204Z,99895.72
2023-04-08T22:38:55.454Z,99896.81
2023-04-08T22:41:28.510Z,99903.19
2023-04-08T22:44:01.528Z,99892.41
2023-04-08T22:46:35.386Z,99907.31
2023-04-08T22:49:13.205Z,99904.13
2023-04-08T22:51:46.334Z,99910.50
2023-04-08T22:54:19.192Z,99908.91
2023-04-08T22:56:52.010Z,99908.41
2023-04-08T22:59:24.909Z,99906.03
2023-04-08T23:01:57.785Z,99908.09
2023-04-08T23:04:32.333Z,99908.88
2023-04-08T23:07:05.899Z,99912.06
2023-04-08T23:09:38.694Z,99904.06
2023-04-08T23:12:11.473Z,99910.88
2023-04-08T23:14:44.246Z,99912.88
2023-04-08T23:17:17.176Z,99907.72
2023-04-08T23:19:51.432Z,99904.53
2023-04-08T23:22:25.106Z,99902.53
2023-04-08T23:24:57.964Z,99899.78
2023-04-08T23:27:31.583Z,99896.53
2023-04-08T23:30:07.218Z,99894.53
2023-04-08T23:32:40.097Z,99897.75
2023-04-08T23:35:16.565Z,99897.72
2023-04-08T23:37:49.346Z,99894.97
2023-04-08T23:40:22.336Z,99893.38
2023-04-08T23:42:55.328Z,99900.50
2023-04-08T23:45:28.145Z,99897.38
2023-04-08T23:48:01.272Z,99892.91
2023-04-08T23:50:35.649Z,99895.34
2023-04-08T23:53:08.563Z,99911.19
2023-04-08T23:55:41.325Z,99893.72
2023-04-08T23:58:14.400Z,99897.69
